METAR Data
IDs: Format: Raw Decoded Include TAF

Data at: 1101 UTC 28 Sep 2021

CYXX 281000Z 18012KT 10SM FEW052 BKN075 12/09 A2983 RMK SC2AC5 SLP102